Francisco Y Miriam — EA3478 — position and weather

sailwx.info

Track history (hours):
 
Tides and Currents Weather Stations Pressure Air Temp Water Temp Dewpoint Dewpoint Depression Visibility Wind Speed Wind Dir Waves Ship Positions

Francisco Y Miriam

Last reported at 2017-Sep-25 23:21 UTC. Time now 2017-Oct-20 07:24 UTC.
Position N 37°56' W 000°32'.
Warning: this ship's position is 24 days out of date.

Length 18 m.

Type: Fishing. MMSI: 224150820.

Date/timePositionNaut miles runAvg speedWind from/ knotsBaromVisibWave heightAir tempDewpointWater temp
2017-Sep-25 23:21N 37°56' W 000°32'3 7.5
2017-Sep-25 23:00N 37°53' W 000°33'0 0.5
2017-Sep-25 22:30N 37°53' W 000°33'7 0.5
2017-Sep-25 07:21N 37°58' W 000°41'3 8.1
2017-Sep-25 06:57N 37°56' W 000°37'5 3.9
2017-Sep-25 05:42N 37°54' W 000°32'0 0.6
2017-Sep-25 05:27N 37°54' W 000°32'0 0.4
2017-Sep-25 04:40N 37°54' W 000°32'0 0.1
2017-Sep-25 04:23N 37°54' W 000°32'8 5.4
2017-Sep-25 02:56N 37°46' W 000°33'4 8.1
2017-Sep-25 02:29N 37°43' W 000°31'5 7.6
2017-Sep-25 01:53N 37°39' W 000°34'3 8.0
2017-Sep-25 01:30N 37°36' W 000°35'7 8.5
2017-Sep-25 00:42N 37°32' W 000°42'3 8.7
2017-Sep-25 00:24N 37°32' W 000°45'4 8.8
2017-Sep-24 23:56N 37°31' W 000°50'  
2017-Sep-20 18:27N 37°24' W 001°34'1 0.1
2017-Sep-20 08:13N 37°24' W 001°35'0 0.3
2017-Sep-20 08:00N 37°24' W 001°35'0 0.0
2017-Sep-20 07:30N 37°24' W 001°35'0 0.0
2017-Sep-20 07:00N 37°24' W 001°35'  
Track history (hours):
 
Tides and Currents Weather Stations Pressure Air Temp Water Temp Dewpoint Dewpoint Depression Visibility Wind Speed Wind Dir Waves Ship Positions

Francisco Y Miriam

Last reported at 2017-Sep-25 23:21 UTC. Time now 2017-Oct-20 07:24 UTC.
Position N 37°56' W 000°32'.
Warning: this ship's position is 24 days out of date.

Length 18 m.

Type: Fishing. MMSI: 224150820.

Date/timePositionNaut miles runAvg speedWind from/ knotsBaromVisibWave heightAir tempDewpointWater temp
2017-Sep-25 23:21N 37°56' W 000°32'3 7.5
2017-Sep-25 23:00N 37°53' W 000°33'0 0.5
2017-Sep-25 22:30N 37°53' W 000°33'7 0.5
2017-Sep-25 07:21N 37°58' W 000°41'3 8.1
2017-Sep-25 06:57N 37°56' W 000°37'5 3.9
2017-Sep-25 05:42N 37°54' W 000°32'0 0.6
2017-Sep-25 05:27N 37°54' W 000°32'0 0.4
2017-Sep-25 04:40N 37°54' W 000°32'0 0.1
2017-Sep-25 04:23N 37°54' W 000°32'8 5.4
2017-Sep-25 02:56N 37°46' W 000°33'4 8.1
2017-Sep-25 02:29N 37°43' W 000°31'5 7.6
2017-Sep-25 01:53N 37°39' W 000°34'3 8.0
2017-Sep-25 01:30N 37°36' W 000°35'7 8.5
2017-Sep-25 00:42N 37°32' W 000°42'3 8.7
2017-Sep-25 00:24N 37°32' W 000°45'4 8.8
2017-Sep-24 23:56N 37°31' W 000°50'  
2017-Sep-20 18:27N 37°24' W 001°34'1 0.1
2017-Sep-20 08:13N 37°24' W 001°35'0 0.3
2017-Sep-20 08:00N 37°24' W 001°35'0 0.0
2017-Sep-20 07:30N 37°24' W 001°35'0 0.0
2017-Sep-20 07:00N 37°24' W 001°35'  

Dump ship's entire track history